createdAt,value
2017-09-28T00:00:19.274Z,90.38
2017-09-28T00:02:48.377Z,90.16
2017-09-28T00:05:17.506Z,91.47
2017-09-28T00:07:45.837Z,92.08
2017-09-28T00:10:14.197Z,91.17
2017-09-28T00:12:42.528Z,91.47
2017-09-28T00:15:10.872Z,90.69
2017-09-28T00:17:39.244Z,89.99
2017-09-28T00:20:07.584Z,90.26
2017-09-28T00:22:35.962Z,89.44
2017-09-28T00:25:04.298Z,89.95
2017-09-28T00:27:33.412Z,90.34
2017-09-28T00:30:02.554Z,90.45
2017-09-28T00:32:30.885Z,90.78
2017-09-28T00:35:00.029Z,91.18
2017-09-28T00:37:28.363Z,90.27
2017-09-28T00:39:57.477Z,89.94
2017-09-28T00:42:25.849Z,89.99
2017-09-28T00:44:54.947Z,90.21
2017-09-28T00:47:24.085Z,90.34
2017-09-28T00:49:52.422Z,91.75
2017-09-28T00:52:21.556Z,91.10
2017-09-28T00:54:49.887Z,91.49
2017-09-28T00:57:19.026Z,91.53
2017-09-28T00:59:47.359Z,93.02
2017-09-28T01:02:15.690Z,93.28
2017-09-28T01:04:44.071Z,91.48
2017-09-28T01:07:12.405Z,91.56
2017-09-28T01:09:41.538Z,93.27
2017-09-28T01:12:09.867Z,93.35
2017-09-28T01:14:39.320Z,92.46
2017-09-28T01:17:07.692Z,92.27
2017-09-28T01:19:36.037Z,91.72
2017-09-28T01:22:04.402Z,91.17
2017-09-28T01:24:32.733Z,91.01
2017-09-28T01:27:01.836Z,90.91
2017-09-28T01:29:30.193Z,90.50
2017-09-28T01:31:59.297Z,90.24
2017-09-28T01:34:28.436Z,89.99
2017-09-28T01:36:56.771Z,90.62
2017-09-28T01:39:25.869Z,90.61
2017-09-28T01:41:55.001Z,90.14
2017-09-28T01:44:23.331Z,89.62
2017-09-28T01:46:51.687Z,90.05
2017-09-28T01:49:20.033Z,90.46
2017-09-28T01:51:48.429Z,89.87
2017-09-28T01:54:16.760Z,89.41
2017-09-28T01:56:45.096Z,90.09
2017-09-28T01:59:13.452Z,90.20
2017-09-28T02:01:41.799Z,90.47
2017-09-28T02:04:10.162Z,91.08
2017-09-28T02:06:38.496Z,90.94
2017-09-28T02:09:06.828Z,91.15
2017-09-28T02:11:35.180Z,91.21
2017-09-28T02:14:03.515Z,92.43
2017-09-28T02:16:32.648Z,92.32
2017-09-28T02:19:00.979Z,92.23
2017-09-28T02:21:29.314Z,91.53
2017-09-28T02:23:57.671Z,91.58
2017-09-28T02:26:26.043Z,91.95
2017-09-28T02:28:54.412Z,91.64
2017-09-28T02:31:23.520Z,91.44
2017-09-28T02:33:52.616Z,91.24
2017-09-28T02:36:21.846Z,90.72
2017-09-28T02:38:50.180Z,90.42
2017-09-28T02:41:19.325Z,90.62
2017-09-28T02:43:47.655Z,90.12
2017-09-28T02:46:15.996Z,90.10
2017-09-28T02:48:45.390Z,90.89
2017-09-28T02:51:13.728Z,90.43
2017-09-28T02:53:42.852Z,89.94
2017-09-28T02:56:11.183Z,89.72
2017-09-28T02:58:39.543Z,89.47
2017-09-28T03:01:07.875Z,89.10
2017-09-28T03:03:36.969Z,89.49
2017-09-28T03:06:06.107Z,89.69
2017-09-28T03:08:34.438Z,89.96
2017-09-28T03:11:03.565Z,89.43
2017-09-28T03:13:31.893Z,89.32
2017-09-28T03:16:00.234Z,90.66
2017-09-28T03:18:28.592Z,92.06
2017-09-28T03:20:57.694Z,91.41
2017-09-28T03:23:26.819Z,91.15
2017-09-28T03:25:55.147Z,91.17
2017-09-28T03:28:23.481Z,90.94
2017-09-28T03:30:51.836Z,91.05
2017-09-28T03:33:20.172Z,90.95
2017-09-28T03:35:48.536Z,90.41
2017-09-28T03:38:16.875Z,90.58
2017-09-28T03:40:45.208Z,90.64
2017-09-28T03:43:13.581Z,90.19
2017-09-28T03:45:41.912Z,90.27
2017-09-28T03:48:11.009Z,89.66
2017-09-28T03:50:40.144Z,89.51
2017-09-28T03:53:08.484Z,90.00
2017-09-28T03:55:37.585Z,90.85
2017-09-28T03:58:06.704Z,90.36
2017-09-28T04:00:35.032Z,89.93
2017-09-28T04:03:03.365Z,89.50
2017-09-28T04:05:31.734Z,90.32
2017-09-28T04:08:00.069Z,91.39
2017-09-28T04:10:28.432Z,93.20
2017-09-28T04:12:56.792Z,93.15
2017-09-28T04:15:25.123Z,93.39
2017-09-28T04:17:53.484Z,92.17
2017-09-28T04:20:21.833Z,91.61
2017-09-28T04:22:50.177Z,91.47
2017-09-28T04:25:19.305Z,91.99
2017-09-28T04:27:47.641Z,92.80
2017-09-28T04:30:16.748Z,93.17
2017-09-28T04:32:45.876Z,94.95
2017-09-28T04:35:14.215Z,95.25
2017-09-28T04:37:42.555Z,93.77
2017-09-28T04:40:10.910Z,92.52
2017-09-28T04:42:39.244Z,91.53
2017-09-28T04:45:07.576Z,91.13
2017-09-28T04:47:35.967Z,90.82
2017-09-28T04:50:04.294Z,90.60
2017-09-28T04:52:32.631Z,90.08
2017-09-28T04:55:00.997Z,89.74
2017-09-28T04:57:29.344Z,90.28
2017-09-28T04:59:58.448Z,89.94
2017-09-28T05:02:27.672Z,91.52
2017-09-28T05:04:56.004Z,91.67
2017-09-28T05:07:24.423Z,91.11
2017-09-28T05:09:53.521Z,90.99
2017-09-28T05:12:22.624Z,91.10
2017-09-28T05:14:50.988Z,90.80
2017-09-28T05:17:20.104Z,90.40
2017-09-28T05:19:48.456Z,89.69
2017-09-28T05:22:17.579Z,90.16
2017-09-28T05:24:45.928Z,90.18
2017-09-28T05:27:14.279Z,90.20
2017-09-28T05:29:42.629Z,90.07
2017-09-28T05:32:10.995Z,89.70
2017-09-28T05:34:40.099Z,89.49
2017-09-28T05:37:08.448Z,89.76
2017-09-28T05:39:36.815Z,89.59
2017-09-28T05:42:05.144Z,89.55
2017-09-28T05:44:33.506Z,88.95
2017-09-28T05:47:02.613Z,88.96
2017-09-28T05:49:31.717Z,89.35
2017-09-28T05:52:00.069Z,89.81
2017-09-28T05:54:28.405Z,89.31
2017-09-28T05:56:56.763Z,88.81
2017-09-28T05:59:25.107Z,89.35
2017-09-28T06:01:53.456Z,89.77
2017-09-28T06:04:21.828Z,89.48
2017-09-28T06:06:52.197Z,89.70
2017-09-28T06:09:20.680Z,89.25
2017-09-28T06:11:49.105Z,88.90
2017-09-28T06:14:17.450Z,89.10
2017-09-28T06:16:46.579Z,89.51
2017-09-28T06:19:14.932Z,89.03
2017-09-28T06:21:44.065Z,89.15
2017-09-28T06:24:12.395Z,90.27
2017-09-28T06:26:40.752Z,89.65
2017-09-28T06:29:09.127Z,89.27
2017-09-28T06:31:37.460Z,89.76
2017-09-28T06:34:06.586Z,89.15
2017-09-28T06:36:34.940Z,89.54
2017-09-28T06:39:04.075Z,88.70
2017-09-28T06:41:32.452Z,89.05
2017-09-28T06:44:01.560Z,88.45
2017-09-28T06:46:29.923Z,88.10
2017-09-28T06:48:58.267Z,87.51
2017-09-28T06:51:27.382Z,87.25
2017-09-28T06:53:55.740Z,87.91
2017-09-28T06:56:24.865Z,89.79
2017-09-28T06:58:53.520Z,88.75
2017-09-28T07:01:21.866Z,87.38
2017-09-28T07:03:50.199Z,87.76
2017-09-28T07:06:19.327Z,87.41
2017-09-28T07:08:47.688Z,87.14
2017-09-28T07:11:16.053Z,88.49
2017-09-28T07:13:45.169Z,90.34
2017-09-28T07:16:13.503Z,90.06
2017-09-28T07:18:41.861Z,88.89
2017-09-28T07:21:10.201Z,88.59
2017-09-28T07:23:39.326Z,87.85
2017-09-28T07:26:07.660Z,86.83
2017-09-28T07:28:35.997Z,87.35
2017-09-28T07:31:04.363Z,87.46
2017-09-28T07:33:32.697Z,86.60
2017-09-28T07:36:01.076Z,86.60
2017-09-28T07:38:29.412Z,86.03
2017-09-28T07:40:57.753Z,85.81
2017-09-28T07:43:26.892Z,85.80
2017-09-28T07:45:55.224Z,86.39
2017-09-28T07:48:24.357Z,85.71
2017-09-28T07:50:54.460Z,85.72
2017-09-28T07:53:23.557Z,85.77
2017-09-28T07:55:51.925Z,85.43
2017-09-28T07:58:21.024Z,85.23
2017-09-28T08:00:50.151Z,85.41
2017-09-28T08:03:18.484Z,85.22
2017-09-28T08:05:46.842Z,84.93
2017-09-28T08:08:15.186Z,85.18
2017-09-28T08:10:43.521Z,84.87
2017-09-28T08:13:11.892Z,84.27
2017-09-28T08:15:40.223Z,84.00
2017-09-28T08:18:08.588Z,83.26
2017-09-28T08:20:37.688Z,83.18
2017-09-28T08:23:06.795Z,83.13
2017-09-28T08:25:35.152Z,82.69
2017-09-28T08:28:03.491Z,82.40
2017-09-28T08:30:31.852Z,81.10
2017-09-28T08:33:00.188Z,80.73
2017-09-28T08:35:28.540Z,81.51
2017-09-28T08:37:56.905Z,81.71
2017-09-28T08:40:25.242Z,81.73
2017-09-28T08:42:54.375Z,80.87
2017-09-28T08:45:22.708Z,80.90
2017-09-28T08:47:51.043Z,81.15
2017-09-28T08:50:19.446Z,81.09
2017-09-28T08:52:47.792Z,81.25
2017-09-28T08:55:16.159Z,80.87
2017-09-28T08:57:44.498Z,80.45
2017-09-28T09:00:12.853Z,81.02
2017-09-28T09:02:41.187Z,82.47
2017-09-28T09:05:10.319Z,83.72
2017-09-28T09:07:38.663Z,83.02
2017-09-28T09:10:07.797Z,82.51
2017-09-28T09:12:36.127Z,82.24
2017-09-28T09:15:04.461Z,80.86
2017-09-28T09:17:32.821Z,80.42
2017-09-28T09:20:01.152Z,79.66
2017-09-28T09:22:29.504Z,81.31
2017-09-28T09:24:59.384Z,80.77
2017-09-28T09:27:28.526Z,82.11
2017-09-28T09:29:56.850Z,80.22
2017-09-28T09:32:25.978Z,79.66
2017-09-28T09:34:54.339Z,79.90
2017-09-28T09:37:23.484Z,78.74
2017-09-28T09:39:51.844Z,77.71
2017-09-28T09:42:20.184Z,76.66
2017-09-28T09:44:49.288Z,78.27
2017-09-28T09:47:18.412Z,77.77
2017-09-28T09:49:46.758Z,78.12
2017-09-28T09:52:15.889Z,78.16
2017-09-28T09:54:44.229Z,76.76
2017-09-28T09:57:12.564Z,77.69
2017-09-28T09:59:40.917Z,78.30
2017-09-28T10:02:09.256Z,78.69
2017-09-28T10:04:37.619Z,79.40
2017-09-28T10:07:12.621Z,78.81
2017-09-28T10:09:46.775Z,78.98
2017-09-28T10:12:18.281Z,79.04
2017-09-28T10:15:01.647Z,78.42
2017-09-28T10:17:29.998Z,77.80
2017-09-28T10:19:58.335Z,78.19
2017-09-28T10:22:27.435Z,77.51
2017-09-28T10:24:55.864Z,76.20
2017-09-28T10:27:24.229Z,76.11
2017-09-28T10:29:53.337Z,74.66
2017-09-28T10:32:21.675Z,75.57
2017-09-28T10:34:50.037Z,76.76
2017-09-28T10:37:18.382Z,77.79
2017-09-28T10:39:46.746Z,78.72
2017-09-28T10:42:15.852Z,78.86
2017-09-28T10:44:44.989Z,79.24
2017-09-28T10:47:13.331Z,79.63
2017-09-28T10:49:42.439Z,78.95
2017-09-28T10:52:10.804Z,79.35
2017-09-28T10:54:39.909Z,77.79
2017-09-28T10:57:09.040Z,77.06
2017-09-28T10:59:37.371Z,75.46
2017-09-28T11:02:05.711Z,73.75
2017-09-28T11:04:34.070Z,74.63
2017-09-28T11:07:03.350Z,73.08
2017-09-28T11:09:32.477Z,71.17
2017-09-28T11:12:00.812Z,70.61
2017-09-28T11:14:29.940Z,71.92
2017-09-28T11:16:58.268Z,70.51
2017-09-28T11:19:26.638Z,69.51
2017-09-28T11:21:55.012Z,69.66
2017-09-28T11:24:23.375Z,70.96
2017-09-28T11:26:51.765Z,72.00
2017-09-28T11:29:20.108Z,72.60
2017-09-28T11:31:49.203Z,73.43
2017-09-28T11:34:17.575Z,73.89
2017-09-28T11:36:46.687Z,73.00
2017-09-28T11:39:15.862Z,73.43
2017-09-28T11:41:44.205Z,73.31
2017-09-28T11:44:12.561Z,74.21
2017-09-28T11:46:40.928Z,73.92
2017-09-28T11:49:10.036Z,73.64
2017-09-28T11:51:38.373Z,73.86
2017-09-28T11:54:06.733Z,74.19
2017-09-28T11:56:35.096Z,74.32
2017-09-28T11:59:03.744Z,75.13
2017-09-28T12:01:32.855Z,75.60
2017-09-28T12:04:01.209Z,75.03
2017-09-28T12:06:30.355Z,74.92
2017-09-28T12:08:58.702Z,74.43
2017-09-28T12:11:27.835Z,74.20
2017-09-28T12:13:56.181Z,75.15
2017-09-28T12:16:25.280Z,75.17
2017-09-28T12:18:54.420Z,74.96
2017-09-28T12:21:22.792Z,74.75
2017-09-28T12:23:51.172Z,75.52
2017-09-28T12:26:19.508Z,74.35
2017-09-28T12:28:48.612Z,73.96
2017-09-28T12:31:17.744Z,75.39
2017-09-28T12:33:46.073Z,73.85
2017-09-28T12:36:14.433Z,72.04
2017-09-28T12:38:42.771Z,72.32
2017-09-28T12:41:11.133Z,71.90
2017-09-28T12:43:40.255Z,70.68
2017-09-28T12:46:08.609Z,71.08
2017-09-28T12:48:37.749Z,70.79
2017-09-28T12:51:06.086Z,69.97
2017-09-28T12:53:35.222Z,71.56
2017-09-28T12:56:03.563Z,69.56
2017-09-28T12:58:32.692Z,68.52
2017-09-28T13:01:01.044Z,67.12
2017-09-28T13:03:30.150Z,66.91
2017-09-28T13:05:59.291Z,65.93
2017-09-28T13:08:27.640Z,65.61
2017-09-28T13:10:56.005Z,64.58
2017-09-28T13:13:25.105Z,65.71
2017-09-28T13:15:54.206Z,64.65
2017-09-28T13:18:23.439Z,65.92
2017-09-28T13:20:51.784Z,66.67
2017-09-28T13:23:20.926Z,65.83
2017-09-28T13:25:49.273Z,66.40
2017-09-28T13:28:17.652Z,67.43
2017-09-28T13:30:46.015Z,67.61
2017-09-28T13:33:15.123Z,67.88
2017-09-28T13:35:44.260Z,69.31
2017-09-28T13:38:12.603Z,67.36
2017-09-28T13:40:41.713Z,68.97
2017-09-28T13:43:10.077Z,68.54
2017-09-28T13:45:39.180Z,68.13
2017-09-28T13:48:08.324Z,67.01
2017-09-28T13:50:36.661Z,67.61
2017-09-28T13:53:05.789Z,67.20
2017-09-28T13:55:34.119Z,67.86
2017-09-28T13:58:02.452Z,67.86
2017-09-28T14:00:30.816Z,69.81
2017-09-28T14:02:59.155Z,69.26
2017-09-28T14:05:27.515Z,67.42
2017-09-28T14:07:55.844Z,68.61
2017-09-28T14:10:24.944Z,67.50
2017-09-28T14:12:54.135Z,68.57
2017-09-28T14:15:23.236Z,68.32
2017-09-28T14:17:52.364Z,68.35
2017-09-28T14:20:20.740Z,67.17
2017-09-28T14:22:49.076Z,67.60
2017-09-28T14:25:17.441Z,66.98
2017-09-28T14:27:45.780Z,66.94
2017-09-28T14:30:14.135Z,66.29
2017-09-28T14:32:43.236Z,66.97
2017-09-28T14:35:12.332Z,66.39
2017-09-28T14:37:41.464Z,65.92
2017-09-28T14:40:09.796Z,66.66
2017-09-28T14:42:38.960Z,67.01
2017-09-28T14:45:07.287Z,66.49
2017-09-28T14:47:36.390Z,66.78
2017-09-28T14:50:04.784Z,67.13
2017-09-28T14:52:33.117Z,67.16
2017-09-28T14:55:01.484Z,68.27
2017-09-28T14:57:29.821Z,69.66
2017-09-28T14:59:58.159Z,70.12
2017-09-28T15:02:26.523Z,69.67
2017-09-28T15:04:54.857Z,69.72
2017-09-28T15:07:23.230Z,71.64
2017-09-28T15:09:52.335Z,71.74
2017-09-28T15:12:20.671Z,71.16
2017-09-28T15:14:49.041Z,70.90
2017-09-28T15:17:17.384Z,71.09
2017-09-28T15:19:45.753Z,71.56
2017-09-28T15:22:14.848Z,70.55
2017-09-28T15:24:43.990Z,70.98
2017-09-28T15:27:13.361Z,71.55
2017-09-28T15:29:41.695Z,71.35
2017-09-28T15:32:10.059Z,70.63
2017-09-28T15:34:38.391Z,70.71
2017-09-28T15:37:07.609Z,71.62
2017-09-28T15:39:36.650Z,71.14
2017-09-28T15:42:04.992Z,70.83
2017-09-28T15:44:33.356Z,71.25
2017-09-28T15:47:01.692Z,70.16
2017-09-28T15:49:30.071Z,71.18
2017-09-28T15:51:58.421Z,71.29
2017-09-28T15:54:26.786Z,73.54
2017-09-28T15:56:55.176Z,73.48
2017-09-28T15:59:23.547Z,73.15
2017-09-28T16:01:51.879Z,73.54
2017-09-28T16:04:20.244Z,74.14
2017-09-28T16:06:48.611Z,73.00
2017-09-28T16:09:16.950Z,73.89
2017-09-28T16:11:46.084Z,73.96
2017-09-28T16:14:14.421Z,73.11
2017-09-28T16:16:43.527Z,73.54
2017-09-28T16:19:12.675Z,73.29
2017-09-28T16:21:41.076Z,73.51
2017-09-28T16:24:09.445Z,74.07
2017-09-28T16:26:37.778Z,73.71
2017-09-28T16:29:06.119Z,74.80
2017-09-28T16:31:34.488Z,75.89
2017-09-28T16:34:02.826Z,76.64
2017-09-28T16:36:31.184Z,76.64
2017-09-28T16:39:00.285Z,77.11
2017-09-28T16:41:29.384Z,77.87
2017-09-28T16:43:58.509Z,77.94
2017-09-28T16:46:26.833Z,78.48
2017-09-28T16:48:55.195Z,78.32
2017-09-28T16:51:23.534Z,78.60
2017-09-28T16:53:51.878Z,78.88
2017-09-28T16:56:20.232Z,79.27
2017-09-28T16:58:48.569Z,79.87
2017-09-28T17:01:16.930Z,81.02
2017-09-28T17:03:46.049Z,80.59
2017-09-28T17:06:16.165Z,80.73
2017-09-28T17:08:44.924Z,80.70
2017-09-28T17:11:15.769Z,81.88
2017-09-28T17:13:44.554Z,81.92
2017-09-28T17:16:13.825Z,81.85
2017-09-28T17:18:42.644Z,81.80
2017-09-28T17:21:11.785Z,82.20
2017-09-28T17:23:40.129Z,82.33
2017-09-28T17:26:08.720Z,82.31
2017-09-28T17:28:37.846Z,82.31
2017-09-28T17:31:06.187Z,82.43
2017-09-28T17:33:34.556Z,82.59
2017-09-28T17:36:03.273Z,83.12
2017-09-28T17:38:32.430Z,83.59
2017-09-28T17:41:00.937Z,83.34
2017-09-28T17:43:29.653Z,83.06
2017-09-28T17:45:58.591Z,82.89
2017-09-28T17:48:27.215Z,83.02
2017-09-28T17:50:56.096Z,83.24
2017-09-28T17:53:25.734Z,83.06
2017-09-28T17:55:54.893Z,83.01
2017-09-28T17:58:23.225Z,82.81
2017-09-28T18:00:52.335Z,82.72
2017-09-28T18:03:20.816Z,82.92
2017-09-28T18:05:49.183Z,83.16
2017-09-28T18:08:17.572Z,83.46
2017-09-28T18:10:46.676Z,83.75
2017-09-28T18:13:15.052Z,83.79
2017-09-28T18:15:43.429Z,83.53
2017-09-28T18:18:12.577Z,83.48
2017-09-28T18:20:41.407Z,83.88
2017-09-28T18:23:10.524Z,83.61
2017-09-28T18:25:40.271Z,83.65
2017-09-28T18:28:09.081Z,83.69
2017-09-28T18:30:39.994Z,83.58
2017-09-28T18:33:09.127Z,83.60
2017-09-28T18:35:38.717Z,83.76
2017-09-28T18:38:07.116Z,84.34
2017-09-28T18:40:35.466Z,84.43
2017-09-28T18:43:13.151Z,85.35
2017-09-28T18:45:43.084Z,85.08
2017-09-28T18:48:12.366Z,87.30
2017-09-28T18:50:41.492Z,86.65
2017-09-28T18:53:10.623Z,87.12
2017-09-28T18:55:39.670Z,86.97
2017-09-28T18:58:08.072Z,86.92
2017-09-28T19:00:36.948Z,87.75
2017-09-28T19:03:07.567Z,87.27
2017-09-28T19:05:36.281Z,86.80
2017-09-28T19:08:07.225Z,86.61
2017-09-28T19:10:35.588Z,86.29
2017-09-28T19:13:03.991Z,86.23
2017-09-28T19:15:32.367Z,86.15
2017-09-28T19:18:00.718Z,85.91
2017-09-28T19:20:29.098Z,85.64
2017-09-28T19:22:57.458Z,85.53
2017-09-28T19:25:26.603Z,85.57
2017-09-28T19:27:55.374Z,85.44
2017-09-28T19:30:24.064Z,85.38
2017-09-28T19:32:52.478Z,85.17
2017-09-28T19:35:20.835Z,85.34
2017-09-28T19:37:49.215Z,85.47
2017-09-28T19:40:17.587Z,85.43
2017-09-28T19:42:45.990Z,85.34
2017-09-28T19:45:14.353Z,85.41
2017-09-28T19:47:42.789Z,85.46
2017-09-28T19:50:11.916Z,85.29
2017-09-28T19:52:40.304Z,85.35
2017-09-28T19:55:08.658Z,85.45
2017-09-28T19:57:37.802Z,85.74
2017-09-28T20:00:06.163Z,85.88
2017-09-28T20:02:34.556Z,85.87
2017-09-28T20:05:02.966Z,86.90
2017-09-28T20:07:32.103Z,86.86
2017-09-28T20:10:01.251Z,87.38
2017-09-28T20:12:29.622Z,87.42
2017-09-28T20:14:57.974Z,87.32
2017-09-28T20:17:26.411Z,87.39
2017-09-28T20:19:54.896Z,87.55
2017-09-28T20:22:23.280Z,87.41
2017-09-28T20:24:52.447Z,87.08
2017-09-28T20:27:20.818Z,86.88
2017-09-28T20:29:49.175Z,86.64
2017-09-28T20:32:18.278Z,86.98
2017-09-28T20:34:46.735Z,88.18
2017-09-28T20:37:15.084Z,88.32
2017-09-28T20:39:43.461Z,87.85
2017-09-28T20:42:11.821Z,87.18
2017-09-28T20:44:40.175Z,86.79
2017-09-28T20:47:09.323Z,86.53
2017-09-28T20:49:37.664Z,86.35
2017-09-28T20:52:06.101Z,86.54
2017-09-28T20:54:34.450Z,86.83
2017-09-28T20:57:02.781Z,86.35
2017-09-28T20:59:32.027Z,86.28
2017-09-28T21:02:00.539Z,86.52
2017-09-28T21:04:28.904Z,86.55
2017-09-28T21:06:57.243Z,86.56
2017-09-28T21:09:27.998Z,86.13
2017-09-28T21:11:56.369Z,85.97
2017-09-28T21:14:24.717Z,86.04
2017-09-28T21:16:53.247Z,87.78
2017-09-28T21:19:21.656Z,87.35
2017-09-28T21:21:50.300Z,87.02
2017-09-28T21:24:18.687Z,86.45
2017-09-28T21:26:47.021Z,86.15
2017-09-28T21:29:15.775Z,85.91
2017-09-28T21:31:44.940Z,85.60
2017-09-28T21:34:14.048Z,85.71
2017-09-28T21:36:43.181Z,86.19
2017-09-28T21:39:11.540Z,87.48
2017-09-28T21:41:39.905Z,87.33
2017-09-28T21:44:09.026Z,87.06
2017-09-28T21:46:37.388Z,86.73
2017-09-28T21:49:05.757Z,86.46
2017-09-28T21:51:34.875Z,86.70
2017-09-28T21:54:03.276Z,87.16
2017-09-28T21:56:31.618Z,87.51
2017-09-28T21:59:00.771Z,87.75
2017-09-28T22:01:29.111Z,87.90
2017-09-28T22:03:57.465Z,87.74
2017-09-28T22:06:26.624Z,87.95
2017-09-28T22:08:54.963Z,87.74
2017-09-28T22:11:24.126Z,87.68
2017-09-28T22:13:52.471Z,87.57
2017-09-28T22:16:20.805Z,87.70
2017-09-28T22:18:49.957Z,87.92
2017-09-28T22:21:18.312Z,88.25
2017-09-28T22:23:46.674Z,88.32
2017-09-28T22:26:15.779Z,88.62
2017-09-28T22:28:44.124Z,88.89
2017-09-28T22:31:12.488Z,88.46
2017-09-28T22:33:40.855Z,88.10
2017-09-28T22:36:09.225Z,87.79
2017-09-28T22:38:37.562Z,87.87
2017-09-28T22:41:06.661Z,87.74
2017-09-28T22:43:35.792Z,87.56
2017-09-28T22:46:04.118Z,87.85
2017-09-28T22:48:32.484Z,88.59
2017-09-28T22:51:00.815Z,88.87
2017-09-28T22:53:30.339Z,89.64
2017-09-28T22:55:58.705Z,89.59
2017-09-28T22:58:27.816Z,89.36
2017-09-28T23:00:56.189Z,89.01
2017-09-28T23:03:24.527Z,89.17
2017-09-28T23:05:52.879Z,88.89
2017-09-28T23:08:21.239Z,88.66
2017-09-28T23:10:49.571Z,88.74
2017-09-28T23:13:17.936Z,88.37
2017-09-28T23:15:46.264Z,88.16
2017-09-28T23:18:14.609Z,88.04
2017-09-28T23:20:43.040Z,87.99
2017-09-28T23:23:11.433Z,88.19
2017-09-28T23:25:40.609Z,88.62
2017-09-28T23:28:09.726Z,88.26
2017-09-28T23:30:38.113Z,88.23
2017-09-28T23:33:06.501Z,88.15
2017-09-28T23:35:34.840Z,88.08
2017-09-28T23:38:03.995Z,88.35
2017-09-28T23:40:33.093Z,88.25
2017-09-28T23:43:01.433Z,88.47
2017-09-28T23:45:29.788Z,88.33
2017-09-28T23:47:58.991Z,88.20
2017-09-28T23:50:28.115Z,88.85
2017-09-28T23:52:56.440Z,88.52
2017-09-28T23:55:24.778Z,88.50
2017-09-28T23:57:53.148Z,88.25
